This is the latest recevied weather packets stored in our database for station/object IK1YPD-13. If no packets are shown the sender has not sent any weather packets the latest 10 day(s).
| Time | Temp. | Humidity | Pressure | Rain* | Wind** | Luminosity | Snow |
|---|---|---|---|---|---|---|---|
| 1777939726 | 17.22° C | 59% | 1011 hPa | - | - | - | - |
| 1777937026 | 17.22° C | 60% | 1012 hPa | - | - | - | - |
| 1777934326 | 16.67° C | 62% | 1012 hPa | - | - | - | - |
| 1777933426 | 16.67° C | 67% | 1013 hPa | - | - | - | - |
| 1777932526 | 16.11° C | 69% | 1013 hPa | - | - | - | - |
| 1777931625 | 16.11° C | 69% | 1013 hPa | - | - | - | - |
| 1777930725 | 16.11° C | 69% | 1013 hPa | - | - | - | - |
| 1777929825 | 16.11° C | 70% | 1014 hPa | - | - | - | - |
| 1777923525 | 17.22° C | 66% | 1013 hPa | - | - | - | - |
| 1777922625 | 17.78° C | 65% | 1014 hPa | - | - | - | - |
| 1777920825 | 17.78° C | 63% | 1013 hPa | - | - | - | - |
| 1777919925 | 17.78° C | 62% | 1013 hPa | - | - | - | - |
| 1777919025 | 17.78° C | 62% | 1013 hPa | - | - | - | - |
| 1777918125 | 17.78° C | 63% | 1013 hPa | - | - | - | - |
| 1777917225 | 17.78° C | 63% | 1013 hPa | - | - | - | - |
| 1777916324 | 17.78° C | 61% | 1013 hPa | - | - | - | - |
| 1777915424 | 18.33° C | 63% | 1013 hPa | - | - | - | - |
| 1777914524 | 18.33° C | 62% | 1013 hPa | - | - | - | - |
| 1777913624 | 18.33° C | 62% | 1013 hPa | - | - | - | - |
| 1777912724 | 18.33° C | 62% | 1013 hPa | - | - | - | - |
| 1777910924 | 18.89° C | 54% | 1013 hPa | - | - | - | - |
| 1777910024 | 18.89° C | 56% | 1013 hPa | - | - | - | - |
| 1777909124 | 18.89° C | 60% | 1013 hPa | - | - | - | - |
| 1777908224 | 19.44° C | 59% | 1013 hPa | - | - | - | - |
| 1777907324 | 18.89° C | 60% | 1013 hPa | - | - | - | - |
* Rain since midnight (hover to see other rain measurements)
** Current wind speed in m/s (hover to see current wind gust speed)